Pennsylvania — WAPZ — position and weather

sailwx.info

Track history (hours):
 
Tides and Currents Weather Stations Pressure Air Temp Water Temp Dewpoint Dewpoint Depression Visibility Wind Speed Wind Dir Waves Ship Positions

Pennsylvania

Owner: Crowley Petroleum Services, Jacksonville, FL. More information available from US FCC via Universal Licensing System and Coast Guard Vessel Documentation Center.

Last reported at 2017-Feb-24 00:31 UTC. Time now 2017-Feb-26 00:59 UTC.
Position N 25°16' W 080°04'.

Length 183 m; draft 8.7 m.

Type: Tanker. MMSI: 338617000.

Date/timePositionNaut miles runAvg speedWind from/ knotsBaromVisibWave heightAir tempDewpointWater temp
2017-Feb-24 00:31N 25°16' W 080°04'1212.7
2017-Feb-23 23:34N 25°28' W 080°01'1313.0
2017-Feb-23 22:34N 25°41' W 080°00'1313.1
2017-Feb-23 21:34N 25°54' W 079°59'1313.5
2017-Feb-23 20:34N 26°08' W 079°58'1212.4
2017-Feb-23 19:33N 26°20' W 079°56'1211.8
2017-Feb-23 18:31N 26°32' W 079°55'1211.8
2017-Feb-23 17:29N 26°44' W 079°55'1112.4
2017-Feb-23 16:33N 26°56' W 079°55'1211.6
2017-Feb-23 15:33N 27°08' W 079°54'  
2017-Feb-21 03:30N 38°53' W 075°05'1212.3
2017-Feb-21 02:33N 39°04' W 075°10'1515.0
2017-Feb-21 01:33N 39°16' W 075°21'1414.4
2017-Feb-21 00:33N 39°27' W 075°33'1211.9
2017-Feb-20 23:34N 39°39' W 075°33'1111.1
2017-Feb-20 22:33N 39°48' W 075°25'9 9.1
2017-Feb-20 21:33N 39°51' W 075°14'1 0.4
2017-Feb-20 18:26N 39°52' W 075°13'0 0.0
2017-Feb-20 16:20N 39°52' W 075°13'0 0.0
2017-Feb-20 15:32N 39°52' W 075°13'0 0.0
2017-Feb-20 14:32N 39°52' W 075°13'0 0.0
2017-Feb-20 13:26N 39°52' W 075°13'0 0.0
2017-Feb-20 12:23N 39°52' W 075°13'0 0.0
2017-Feb-20 11:32N 39°52' W 075°13'0 0.0
2017-Feb-20 10:26N 39°52' W 075°13'0 0.0
2017-Feb-20 09:29N 39°52' W 075°13'0 0.0
2017-Feb-20 08:29N 39°52' W 075°13'0 0.0
2017-Feb-20 07:32N 39°52' W 075°13'0 0.0
2017-Feb-20 06:26N 39°52' W 075°13'0 0.0
2017-Feb-20 05:20N 39°52' W 075°13'0 0.0
2017-Feb-20 04:32N 39°52' W 075°13'0 0.0
2017-Feb-20 03:32N 39°52' W 075°13'0 0.0
2017-Feb-20 02:32N 39°52' W 075°13'0 0.0
2017-Feb-20 01:32N 39°52' W 075°13'0 0.0
2017-Feb-20 00:32N 39°52' W 075°13'0 0.0
2017-Feb-19 23:32N 39°52' W 075°13'0 0.0
2017-Feb-19 22:32N 39°52' W 075°13'0 0.0
2017-Feb-19 21:32N 39°52' W 075°13'0 0.1
2017-Feb-19 20:33N 39°52' W 075°13'7 6.8
2017-Feb-19 19:33N 39°50' W 075°22'3 3.3
2017-Feb-19 18:31N 39°48' W 075°25'0 0.0
2017-Feb-19 17:25N 39°48' W 075°25'0 0.0
2017-Feb-19 16:31N 39°48' W 075°25'0 0.0
2017-Feb-19 15:31N 39°48' W 075°25'0 0.0
2017-Feb-19 14:28N 39°48' W 075°25'0 0.1
2017-Feb-19 13:28N 39°48' W 075°25'0 0.2
2017-Feb-19 12:31N 39°48' W 075°25'0 0.0
2017-Feb-19 11:31N 39°48' W 075°25'0 0.0
2017-Feb-19 10:31N 39°48' W 075°25'0 0.0
2017-Feb-19 09:31N 39°48' W 075°25'0 0.0
2017-Feb-19 08:31N 39°48' W 075°25'0 0.0
2017-Feb-19 07:31N 39°48' W 075°25'0 0.2
2017-Feb-19 06:31N 39°48' W 075°25'0 0.0
2017-Feb-19 05:31N 39°48' W 075°25'0 0.0
2017-Feb-19 04:31N 39°48' W 075°25'0 0.0
2017-Feb-19 03:31N 39°48' W 075°25'0 0.0
2017-Feb-19 02:31N 39°48' W 075°25'1 0.8
2017-Feb-19 01:33N 39°48' W 075°26'7 6.8
2017-Feb-19 00:33N 39°42' W 075°31'8 8.0
2017-Feb-18 23:33N 39°34' W 075°33'1211.6
2017-Feb-18 22:33N 39°23' W 075°29'1313.3
2017-Feb-18 21:33N 39°13' W 075°17'1313.2
2017-Feb-18 20:33N 39°01' W 075°09'1612.4
2017-Feb-18 19:16N 38°47' W 075°01'3910.6
2017-Feb-18 15:32N 38°16' W 074°29'  
2017-Feb-16 03:33N 26°17' W 079°47'1716.6
2017-Feb-16 02:33N 26°01' W 079°49'1716.7
2017-Feb-16 01:33N 25°44' W 079°52'1616.4
2017-Feb-16 00:33N 25°28' W 079°55'  
Track history (hours):
 
Tides and Currents Weather Stations Pressure Air Temp Water Temp Dewpoint Dewpoint Depression Visibility Wind Speed Wind Dir Waves Ship Positions

Pennsylvania

Owner: Crowley Petroleum Services, Jacksonville, FL. More information available from US FCC via Universal Licensing System and Coast Guard Vessel Documentation Center.

Last reported at 2017-Feb-24 00:31 UTC. Time now 2017-Feb-26 00:59 UTC.
Position N 25°16' W 080°04'.

Length 183 m; draft 8.7 m.

Type: Tanker. MMSI: 338617000.

Date/timePositionNaut miles runAvg speedWind from/ knotsBaromVisibWave heightAir tempDewpointWater temp
2017-Feb-24 00:31N 25°16' W 080°04'1212.7
2017-Feb-23 23:34N 25°28' W 080°01'1313.0
2017-Feb-23 22:34N 25°41' W 080°00'1313.1
2017-Feb-23 21:34N 25°54' W 079°59'1313.5
2017-Feb-23 20:34N 26°08' W 079°58'1212.4
2017-Feb-23 19:33N 26°20' W 079°56'1211.8
2017-Feb-23 18:31N 26°32' W 079°55'1211.8
2017-Feb-23 17:29N 26°44' W 079°55'1112.4
2017-Feb-23 16:33N 26°56' W 079°55'1211.6
2017-Feb-23 15:33N 27°08' W 079°54'  
2017-Feb-21 03:30N 38°53' W 075°05'1212.3
2017-Feb-21 02:33N 39°04' W 075°10'1515.0
2017-Feb-21 01:33N 39°16' W 075°21'1414.4
2017-Feb-21 00:33N 39°27' W 075°33'1211.9
2017-Feb-20 23:34N 39°39' W 075°33'1111.1
2017-Feb-20 22:33N 39°48' W 075°25'9 9.1
2017-Feb-20 21:33N 39°51' W 075°14'1 0.4
2017-Feb-20 18:26N 39°52' W 075°13'0 0.0
2017-Feb-20 16:20N 39°52' W 075°13'0 0.0
2017-Feb-20 15:32N 39°52' W 075°13'0 0.0
2017-Feb-20 14:32N 39°52' W 075°13'0 0.0
2017-Feb-20 13:26N 39°52' W 075°13'0 0.0
2017-Feb-20 12:23N 39°52' W 075°13'0 0.0
2017-Feb-20 11:32N 39°52' W 075°13'0 0.0
2017-Feb-20 10:26N 39°52' W 075°13'0 0.0
2017-Feb-20 09:29N 39°52' W 075°13'0 0.0
2017-Feb-20 08:29N 39°52' W 075°13'0 0.0
2017-Feb-20 07:32N 39°52' W 075°13'0 0.0
2017-Feb-20 06:26N 39°52' W 075°13'0 0.0
2017-Feb-20 05:20N 39°52' W 075°13'0 0.0
2017-Feb-20 04:32N 39°52' W 075°13'0 0.0
2017-Feb-20 03:32N 39°52' W 075°13'0 0.0
2017-Feb-20 02:32N 39°52' W 075°13'0 0.0
2017-Feb-20 01:32N 39°52' W 075°13'0 0.0
2017-Feb-20 00:32N 39°52' W 075°13'0 0.0
2017-Feb-19 23:32N 39°52' W 075°13'0 0.0
2017-Feb-19 22:32N 39°52' W 075°13'0 0.0
2017-Feb-19 21:32N 39°52' W 075°13'0 0.1
2017-Feb-19 20:33N 39°52' W 075°13'7 6.8
2017-Feb-19 19:33N 39°50' W 075°22'3 3.3
2017-Feb-19 18:31N 39°48' W 075°25'0 0.0
2017-Feb-19 17:25N 39°48' W 075°25'0 0.0
2017-Feb-19 16:31N 39°48' W 075°25'0 0.0
2017-Feb-19 15:31N 39°48' W 075°25'0 0.0
2017-Feb-19 14:28N 39°48' W 075°25'0 0.1
2017-Feb-19 13:28N 39°48' W 075°25'0 0.2
2017-Feb-19 12:31N 39°48' W 075°25'0 0.0
2017-Feb-19 11:31N 39°48' W 075°25'0 0.0
2017-Feb-19 10:31N 39°48' W 075°25'0 0.0
2017-Feb-19 09:31N 39°48' W 075°25'0 0.0
2017-Feb-19 08:31N 39°48' W 075°25'0 0.0
2017-Feb-19 07:31N 39°48' W 075°25'0 0.2
2017-Feb-19 06:31N 39°48' W 075°25'0 0.0
2017-Feb-19 05:31N 39°48' W 075°25'0 0.0
2017-Feb-19 04:31N 39°48' W 075°25'0 0.0
2017-Feb-19 03:31N 39°48' W 075°25'0 0.0
2017-Feb-19 02:31N 39°48' W 075°25'1 0.8
2017-Feb-19 01:33N 39°48' W 075°26'7 6.8
2017-Feb-19 00:33N 39°42' W 075°31'8 8.0
2017-Feb-18 23:33N 39°34' W 075°33'1211.6
2017-Feb-18 22:33N 39°23' W 075°29'1313.3
2017-Feb-18 21:33N 39°13' W 075°17'1313.2
2017-Feb-18 20:33N 39°01' W 075°09'1612.4
2017-Feb-18 19:16N 38°47' W 075°01'3910.6
2017-Feb-18 15:32N 38°16' W 074°29'  
2017-Feb-16 03:33N 26°17' W 079°47'1716.6
2017-Feb-16 02:33N 26°01' W 079°49'1716.7
2017-Feb-16 01:33N 25°44' W 079°52'1616.4
2017-Feb-16 00:33N 25°28' W 079°55'  

Dump ship's entire track history